sensor_id;sensor_type;location;lat;lon;timestamp;pressure;altitude;pressure_sealevel;temperature;humidity
24558;BME280;12726;49.148;8.582;2022-12-08T00:02:21;100144.13;;;0.71;100.00
24558;BME280;12726;49.148;8.582;2022-12-08T00:05:08;100144.47;;;0.76;100.00
24558;BME280;12726;49.148;8.582;2022-12-08T00:08:11;100140.16;;;0.75;100.00
24558;BME280;12726;49.148;8.582;2022-12-08T00:11:21;100136.66;;;0.74;100.00
24558;BME280;12726;49.148;8.582;2022-12-08T00:14:06;100135.88;;;0.82;100.00
24558;BME280;12726;49.148;8.582;2022-12-08T00:16:53;100144.66;;;0.83;100.00
24558;BME280;12726;49.148;8.582;2022-12-08T00:19:39;100131.09;;;0.86;100.00
24558;BME280;12726;49.148;8.582;2022-12-08T00:22:24;100136.25;;;0.87;100.00
24558;BME280;12726;49.148;8.582;2022-12-08T00:25:12;100134.44;;;0.88;100.00
24558;BME280;12726;49.148;8.582;2022-12-08T00:27:58;100123.00;;;0.87;100.00
24558;BME280;12726;49.148;8.582;2022-12-08T00:30:44;100117.00;;;0.77;100.00
24558;BME280;12726;49.148;8.582;2022-12-08T00:33:30;100108.56;;;0.82;100.00
24558;BME280;12726;49.148;8.582;2022-12-08T00:36:15;100109.59;;;0.89;100.00
24558;BME280;12726;49.148;8.582;2022-12-08T00:39:00;100105.13;;;0.89;100.00
24558;BME280;12726;49.148;8.582;2022-12-08T00:41:46;100098.50;;;0.85;100.00
24558;BME280;12726;49.148;8.582;2022-12-08T00:44:48;100109.59;;;0.89;100.00
24558;BME280;12726;49.148;8.582;2022-12-08T00:47:33;100102.81;;;0.94;100.00
24558;BME280;12726;49.148;8.582;2022-12-08T00:50:20;100098.56;;;1.01;100.00
24558;BME280;12726;49.148;8.582;2022-12-08T00:53:05;100094.91;;;1.02;100.00
24558;BME280;12726;49.148;8.582;2022-12-08T00:55:53;100092.25;;;1.02;100.00
24558;BME280;12726;49.148;8.582;2022-12-08T00:58:38;100090.28;;;1.04;100.00
24558;BME280;12726;49.148;8.582;2022-12-08T01:01:23;100087.94;;;1.01;100.00
24558;BME280;12726;49.148;8.582;2022-12-08T01:04:11;100084.94;;;0.96;100.00
24558;BME280;12726;49.148;8.582;2022-12-08T01:06:59;100077.84;;;0.97;100.00
24558;BME280;12726;49.148;8.582;2022-12-08T01:09:44;100083.78;;;0.91;100.00
24558;BME280;12726;49.148;8.582;2022-12-08T01:12:30;100087.88;;;0.85;100.00
24558;BME280;12726;49.148;8.582;2022-12-08T01:15:14;100091.31;;;0.77;100.00
24558;BME280;12726;49.148;8.582;2022-12-08T01:18:01;100080.81;;;0.68;100.00
24558;BME280;12726;49.148;8.582;2022-12-08T01:20:46;100089.56;;;0.60;100.00
24558;BME280;12726;49.148;8.582;2022-12-08T01:23:33;100094.94;;;0.51;100.00
24558;BME280;12726;49.148;8.582;2022-12-08T01:26:18;100097.88;;;0.39;100.00
24558;BME280;12726;49.148;8.582;2022-12-08T01:29:03;100096.28;;;0.29;100.00
24558;BME280;12726;49.148;8.582;2022-12-08T01:31:49;100099.88;;;0.20;100.00
24558;BME280;12726;49.148;8.582;2022-12-08T01:34:34;100103.78;;;0.16;100.00
24558;BME280;12726;49.148;8.582;2022-12-08T01:37:19;100103.84;;;0.24;100.00
24558;BME280;12726;49.148;8.582;2022-12-08T01:40:07;100104.84;;;0.23;100.00
24558;BME280;12726;49.148;8.582;2022-12-08T01:42:57;100104.47;;;0.18;100.00
24558;BME280;12726;49.148;8.582;2022-12-08T01:45:42;100096.19;;;0.13;100.00
24558;BME280;12726;49.148;8.582;2022-12-08T01:48:27;100090.03;;;0.12;100.00
24558;BME280;12726;49.148;8.582;2022-12-08T01:51:12;100098.06;;;0.03;100.00
24558;BME280;12726;49.148;8.582;2022-12-08T01:53:58;100093.66;;;-0.07;100.00
24558;BME280;12726;49.148;8.582;2022-12-08T01:56:50;100098.75;;;-0.13;100.00
24558;BME280;12726;49.148;8.582;2022-12-08T01:59:43;100090.03;;;-0.06;100.00
24558;BME280;12726;49.148;8.582;2022-12-08T02:02:36;100086.00;;;0.00;100.00
24558;BME280;12726;49.148;8.582;2022-12-08T02:05:24;100084.59;;;-0.04;100.00
24558;BME280;12726;49.148;8.582;2022-12-08T02:08:11;100076.81;;;-0.06;100.00
24558;BME280;12726;49.148;8.582;2022-12-08T02:10:57;100078.63;;;-0.06;100.00
24558;BME280;12726;49.148;8.582;2022-12-08T02:13:45;100067.69;;;-0.11;100.00
24558;BME280;12726;49.148;8.582;2022-12-08T02:16:35;100070.47;;;-0.13;100.00
24558;BME280;12726;49.148;8.582;2022-12-08T02:19:57;100061.78;;;-0.05;100.00
24558;BME280;12726;49.148;8.582;2022-12-08T02:22:53;100053.22;;;0.01;100.00
24558;BME280;12726;49.148;8.582;2022-12-08T02:25:47;100057.25;;;0.05;100.00
24558;BME280;12726;49.148;8.582;2022-12-08T02:28:57;100053.16;;;-0.07;100.00
24558;BME280;12726;49.148;8.582;2022-12-08T02:31:56;100053.00;;;-0.06;100.00
24558;BME280;12726;49.148;8.582;2022-12-08T02:34:51;100053.16;;;-0.07;100.00
24558;BME280;12726;49.148;8.582;2022-12-08T02:37:46;100041.00;;;0.00;100.00
24558;BME280;12726;49.148;8.582;2022-12-08T02:40:38;100043.94;;;-0.03;100.00
24558;BME280;12726;49.148;8.582;2022-12-08T02:43:31;100033.13;;;-0.10;100.00
24558;BME280;12726;49.148;8.582;2022-12-08T02:46:21;100034.63;;;-0.07;100.00
24558;BME280;12726;49.148;8.582;2022-12-08T02:49:08;100028.91;;;-0.03;100.00
24558;BME280;12726;49.148;8.582;2022-12-08T02:52:05;100010.88;;;0.01;100.00
24558;BME280;12726;49.148;8.582;2022-12-08T02:54:53;100004.16;;;0.07;100.00
24558;BME280;12726;49.148;8.582;2022-12-08T02:57:47;99995.06;;;0.09;100.00
24558;BME280;12726;49.148;8.582;2022-12-08T03:00:44;100007.84;;;0.14;100.00
24558;BME280;12726;49.148;8.582;2022-12-08T03:03:42;100012.09;;;0.07;100.00
24558;BME280;12726;49.148;8.582;2022-12-08T03:06:45;99999.38;;;0.10;100.00
24558;BME280;12726;49.148;8.582;2022-12-08T03:09:41;100004.53;;;0.12;100.00
24558;BME280;12726;49.148;8.582;2022-12-08T03:12:32;99998.28;;;0.21;100.00
24558;BME280;12726;49.148;8.582;2022-12-08T03:15:21;100002.44;;;0.23;100.00
24558;BME280;12726;49.148;8.582;2022-12-08T03:18:10;100008.47;;;0.33;100.00
24558;BME280;12726;49.148;8.582;2022-12-08T03:20:57;100006.25;;;0.29;100.00
24558;BME280;12726;49.148;8.582;2022-12-08T03:23:43;100007.31;;;0.36;100.00
24558;BME280;12726;49.148;8.582;2022-12-08T03:26:35;100003.72;;;0.45;100.00
24558;BME280;12726;49.148;8.582;2022-12-08T03:29:23;100013.19;;;0.48;100.00
24558;BME280;12726;49.148;8.582;2022-12-08T03:32:14;100008.03;;;0.46;100.00
24558;BME280;12726;49.148;8.582;2022-12-08T03:35:04;100009.69;;;0.47;100.00
24558;BME280;12726;49.148;8.582;2022-12-08T03:38:00;100003.53;;;0.38;100.00
24558;BME280;12726;49.148;8.582;2022-12-08T03:40:46;99994.75;;;0.38;100.00
24558;BME280;12726;49.148;8.582;2022-12-08T03:43:54;99990.59;;;0.35;100.00
24558;BME280;12726;49.148;8.582;2022-12-08T03:46:41;99986.94;;;0.36;100.00
24558;BME280;12726;49.148;8.582;2022-12-08T03:49:26;99992.44;;;0.35;100.00
24558;BME280;12726;49.148;8.582;2022-12-08T03:52:11;99983.31;;;0.37;100.00
24558;BME280;12726;49.148;8.582;2022-12-08T03:54:56;99987.47;;;0.40;100.00
24558;BME280;12726;49.148;8.582;2022-12-08T03:57:42;99975.41;;;0.46;100.00
24558;BME280;12726;49.148;8.582;2022-12-08T04:00:29;99982.28;;;0.56;100.00
24558;BME280;12726;49.148;8.582;2022-12-08T04:03:14;99973.31;;;0.57;100.00
24558;BME280;12726;49.148;8.582;2022-12-08T04:05:59;99969.69;;;0.58;100.00
24558;BME280;12726;49.148;8.582;2022-12-08T04:08:44;99956.91;;;0.54;100.00
24558;BME280;12726;49.148;8.582;2022-12-08T04:11:32;99954.94;;;0.56;100.00
24558;BME280;12726;49.148;8.582;2022-12-08T04:14:17;99948.50;;;0.58;100.00
24558;BME280;12726;49.148;8.582;2022-12-08T04:17:04;99948.88;;;0.63;100.00
24558;BME280;12726;49.148;8.582;2022-12-08T04:19:49;99951.03;;;0.68;100.00
24558;BME280;12726;49.148;8.582;2022-12-08T04:22:34;99945.84;;;0.58;100.00
24558;BME280;12726;49.148;8.582;2022-12-08T04:25:22;99951.66;;;0.62;100.00
24558;BME280;12726;49.148;8.582;2022-12-08T04:28:07;99948.22;;;0.69;100.00
24558;BME280;12726;49.148;8.582;2022-12-08T04:30:52;99946.41;;;0.70;100.00
24558;BME280;12726;49.148;8.582;2022-12-08T04:33:39;99948.72;;;0.73;100.00
24558;BME280;12726;49.148;8.582;2022-12-08T04:36:25;99948.41;;;0.76;100.00
24558;BME280;12726;49.148;8.582;2022-12-08T04:39:10;99944.28;;;0.82;100.00
24558;BME280;12726;49.148;8.582;2022-12-08T04:41:55;99943.16;;;0.92;100.00
24558;BME280;12726;49.148;8.582;2022-12-08T04:44:40;99943.47;;;0.89;100.00
24558;BME280;12726;49.148;8.582;2022-12-08T04:47:26;99940.84;;;0.97;100.00
24558;BME280;12726;49.148;8.582;2022-12-08T04:50:13;99930.09;;;0.99;100.00
24558;BME280;12726;49.148;8.582;2022-12-08T04:52:58;99934.88;;;1.03;100.00
24558;BME280;12726;49.148;8.582;2022-12-08T04:55:44;99934.88;;;1.03;100.00
24558;BME280;12726;49.148;8.582;2022-12-08T04:58:31;99943.00;;;1.10;100.00
24558;BME280;12726;49.148;8.582;2022-12-08T05:01:16;99934.72;;;1.05;100.00
24558;BME280;12726;49.148;8.582;2022-12-08T05:04:01;99944.00;;;1.09;100.00
24558;BME280;12726;49.148;8.582;2022-12-08T05:06:48;99932.72;;;1.07;100.00
24558;BME280;12726;49.148;8.582;2022-12-08T05:09:33;99938.03;;;1.07;100.00
24558;BME280;12726;49.148;8.582;2022-12-08T05:12:18;99937.06;;;1.16;100.00
24558;BME280;12726;49.148;8.582;2022-12-08T05:15:04;99930.75;;;1.09;100.00
24558;BME280;12726;49.148;8.582;2022-12-08T05:17:49;99930.28;;;1.13;100.00
24558;BME280;12726;49.148;8.582;2022-12-08T05:20:34;99930.41;;;1.04;100.00
24558;BME280;12726;49.148;8.582;2022-12-08T05:23:21;99927.25;;;1.08;100.00
24558;BME280;12726;49.148;8.582;2022-12-08T05:26:08;99929.25;;;1.14;100.00
24558;BME280;12726;49.148;8.582;2022-12-08T05:28:53;99928.44;;;1.14;100.00
24558;BME280;12726;49.148;8.582;2022-12-08T05:31:39;99925.44;;;1.09;100.00
24558;BME280;12726;49.148;8.582;2022-12-08T05:34:24;99925.78;;;1.06;100.00
24558;BME280;12726;49.148;8.582;2022-12-08T05:37:09;99927.25;;;1.08;100.00
24558;BME280;12726;49.148;8.582;2022-12-08T05:39:57;99921.81;;;1.10;100.00
24558;BME280;12726;49.148;8.582;2022-12-08T05:42:43;99917.19;;;1.12;100.00
24558;BME280;12726;49.148;8.582;2022-12-08T05:45:28;99919.31;;;1.08;100.00
24558;BME280;12726;49.148;8.582;2022-12-08T05:48:13;99922.63;;;1.10;100.00
24558;BME280;12726;49.148;8.582;2022-12-08T05:50:59;99927.09;;;1.10;100.00
24558;BME280;12726;49.148;8.582;2022-12-08T05:53:45;99922.31;;;1.13;100.00
24558;BME280;12726;49.148;8.582;2022-12-08T05:56:32;99927.09;;;1.10;100.00
24558;BME280;12726;49.148;8.582;2022-12-08T05:59:17;99927.63;;;1.05;100.00
24558;BME280;12726;49.148;8.582;2022-12-08T06:02:02;99921.13;;;1.00;100.00
24558;BME280;12726;49.148;8.582;2022-12-08T06:04:48;99920.31;;;0.99;100.00
24558;BME280;12726;49.148;8.582;2022-12-08T06:07:33;99921.47;;;1.05;100.00
24558;BME280;12726;49.148;8.582;2022-12-08T06:10:18;99926.59;;;0.98;100.00
24558;BME280;12726;49.148;8.582;2022-12-08T06:13:05;99920.78;;;0.95;100.00
24558;BME280;12726;49.148;8.582;2022-12-08T06:15:50;99928.88;;;0.93;100.00
24558;BME280;12726;49.148;8.582;2022-12-08T06:18:35;99933.22;;;1.02;100.00
24558;BME280;12726;49.148;8.582;2022-12-08T06:21:21;99921.97;;;1.08;100.00
24558;BME280;12726;49.148;8.582;2022-12-08T06:24:06;99927.75;;;1.04;100.00
24558;BME280;12726;49.148;8.582;2022-12-08T06:26:52;99924.63;;;1.08;100.00
24558;BME280;12726;49.148;8.582;2022-12-08T06:29:38;99926.78;;;1.13;100.00
24558;BME280;12726;49.148;8.582;2022-12-08T06:32:23;99927.09;;;1.10;100.00
24558;BME280;12726;49.148;8.582;2022-12-08T06:35:09;99928.94;;;1.17;100.00
24558;BME280;12726;49.148;8.582;2022-12-08T06:37:54;99932.44;;;1.18;100.00
24558;BME280;12726;49.148;8.582;2022-12-08T06:40:40;99925.28;;;1.10;100.00
24558;BME280;12726;49.148;8.582;2022-12-08T06:43:26;99921.66;;;1.11;100.00
24558;BME280;12726;49.148;8.582;2022-12-08T06:46:14;99936.91;;;1.17;100.00
24558;BME280;12726;49.148;8.582;2022-12-08T06:49:00;99932.44;;;1.18;100.00
24558;BME280;12726;49.148;8.582;2022-12-08T06:51:45;99933.28;;;1.27;100.00
24558;BME280;12726;49.148;8.582;2022-12-08T06:54:30;99929.63;;;1.28;100.00
24558;BME280;12726;49.148;8.582;2022-12-08T06:57:15;99929.13;;;1.24;100.00
24558;BME280;12726;49.148;8.582;2022-12-08T07:00:02;99928.13;;;1.25;100.00
24558;BME280;12726;49.148;8.582;2022-12-08T07:02:49;99926.31;;;1.26;100.00
24558;BME280;12726;49.148;8.582;2022-12-08T07:05:35;99928.28;;;1.24;100.00
24558;BME280;12726;49.148;8.582;2022-12-08T07:08:20;99928.97;;;1.26;100.00
24558;BME280;12726;49.148;8.582;2022-12-08T07:11:07;99934.59;;;1.31;100.00
24558;BME280;12726;49.148;8.582;2022-12-08T07:13:55;99931.63;;;1.26;100.00
24558;BME280;12726;49.148;8.582;2022-12-08T07:16:40;99930.94;;;1.24;100.00
24558;BME280;12726;49.148;8.582;2022-12-08T07:19:27;99927.63;;;1.22;100.00
24558;BME280;12726;49.148;8.582;2022-12-08T07:22:12;99930.28;;;1.30;100.00
24558;BME280;12726;49.148;8.582;2022-12-08T07:24:58;99942.53;;;1.23;100.00
24558;BME280;12726;49.148;8.582;2022-12-08T07:27:43;99934.09;;;1.27;100.00
24558;BME280;12726;49.148;8.582;2022-12-08T07:30:28;99932.44;;;1.26;100.00
24558;BME280;12726;49.148;8.582;2022-12-08T07:33:13;99927.97;;;1.27;100.00
24558;BME280;12726;49.148;8.582;2022-12-08T07:36:01;99931.09;;;1.22;100.00
24558;BME280;12726;49.148;8.582;2022-12-08T07:38:48;99931.78;;;1.24;100.00
24558;BME280;12726;49.148;8.582;2022-12-08T07:41:36;99930.78;;;1.25;100.00
24558;BME280;12726;49.148;8.582;2022-12-08T07:44:25;99925.63;;;1.24;100.00
24558;BME280;12726;49.148;8.582;2022-12-08T07:47:16;99924.81;;;1.31;100.00
24558;BME280;12726;49.148;8.582;2022-12-08T07:50:01;99921.34;;;1.31;100.00
24558;BME280;12726;49.148;8.582;2022-12-08T07:52:48;99923.16;;;1.30;100.00
24558;BME280;12726;49.148;8.582;2022-12-08T07:55:37;99915.88;;;1.32;100.00
24558;BME280;12726;49.148;8.582;2022-12-08T07:58:22;99922.00;;;1.33;100.00
24558;BME280;12726;49.148;8.582;2022-12-08T08:01:17;99918.00;;;1.37;100.00
24558;BME280;12726;49.148;8.582;2022-12-08T08:04:03;99922.50;;;1.36;100.00
24558;BME280;12726;49.148;8.582;2022-12-08T08:06:48;99917.69;;;1.40;100.00
24558;BME280;12726;49.148;8.582;2022-12-08T08:09:35;99916.34;;;1.44;100.00
24558;BME280;12726;49.148;8.582;2022-12-08T08:12:20;99919.84;;;1.52;100.00
24558;BME280;12726;49.148;8.582;2022-12-08T08:15:07;99916.19;;;1.53;100.00
24558;BME280;12726;49.148;8.582;2022-12-08T08:17:53;99917.88;;;1.46;100.00
24558;BME280;12726;49.148;8.582;2022-12-08T08:20:38;99917.03;;;1.54;100.00
24558;BME280;12726;49.148;8.582;2022-12-08T08:23:26;99923.00;;;1.48;100.00
24558;BME280;12726;49.148;8.582;2022-12-08T08:26:13;99930.78;;;1.57;100.00
24558;BME280;12726;49.148;8.582;2022-12-08T08:28:59;99924.00;;;1.63;100.00
24558;BME280;12726;49.148;8.582;2022-12-08T08:31:44;99933.13;;;1.61;100.00
24558;BME280;12726;49.148;8.582;2022-12-08T08:34:29;99927.13;;;1.67;100.00
24558;BME280;12726;49.148;8.582;2022-12-08T08:37:15;99922.31;;;1.78;100.00
24558;BME280;12726;49.148;8.582;2022-12-08T08:40:00;99928.97;;;1.74;100.00
24558;BME280;12726;49.148;8.582;2022-12-08T08:42:47;99918.34;;;1.74;100.00
24558;BME280;12726;49.148;8.582;2022-12-08T08:45:32;99921.81;;;1.75;100.00
24558;BME280;12726;49.148;8.582;2022-12-08T08:48:17;99921.00;;;1.82;100.00
24558;BME280;12726;49.148;8.582;2022-12-08T08:51:07;99921.31;;;1.87;100.00
24558;BME280;12726;49.148;8.582;2022-12-08T08:53:53;99921.13;;;1.89;100.00
24558;BME280;12726;49.148;8.582;2022-12-08T08:56:38;99915.00;;;1.88;100.00
24558;BME280;12726;49.148;8.582;2022-12-08T08:59:26;99910.69;;;1.95;100.00
24558;BME280;12726;49.148;8.582;2022-12-08T09:02:14;99904.38;;;1.88;100.00
24558;BME280;12726;49.148;8.582;2022-12-08T09:04:59;99914.00;;;1.98;100.00
24558;BME280;12726;49.148;8.582;2022-12-08T09:07:45;99908.84;;;1.96;100.00
24558;BME280;12726;49.148;8.582;2022-12-08T09:10:30;99910.00;;;1.93;100.00
24558;BME280;12726;49.148;8.582;2022-12-08T09:13:15;99911.66;;;1.94;100.00
24558;BME280;12726;49.148;8.582;2022-12-08T09:16:03;99908.84;;;1.96;100.00
24558;BME280;12726;49.148;8.582;2022-12-08T09:18:49;99909.69;;;1.96;100.00
24558;BME280;12726;49.148;8.582;2022-12-08T09:21:35;99905.19;;;2.05;100.00
24558;BME280;12726;49.148;8.582;2022-12-08T09:24:20;99911.50;;;2.04;100.00
24558;BME280;12726;49.148;8.582;2022-12-08T09:27:06;99909.66;;;2.05;100.00
24558;BME280;12726;49.148;8.582;2022-12-08T09:29:51;99909.00;;;2.03;100.00
24558;BME280;12726;49.148;8.582;2022-12-08T09:32:38;99913.16;;;2.05;100.00
24558;BME280;12726;49.148;8.582;2022-12-08T09:35:23;99910.31;;;2.07;100.00
24558;BME280;12726;49.148;8.582;2022-12-08T09:38:09;99911.97;;;2.08;100.00
24558;BME280;12726;49.148;8.582;2022-12-08T09:40:54;99902.84;;;2.10;100.00
24558;BME280;12726;49.148;8.582;2022-12-08T09:43:48;99903.84;;;2.09;100.00
24558;BME280;12726;49.148;8.582;2022-12-08T09:46:37;99903.50;;;2.12;100.00
24558;BME280;12726;49.148;8.582;2022-12-08T09:49:32;99888.41;;;2.13;100.00
24558;BME280;12726;49.148;8.582;2022-12-08T09:52:24;99887.38;;;2.14;100.00
24558;BME280;12726;49.148;8.582;2022-12-08T09:55:18;99884.41;;;2.17;100.00
24558;BME280;12726;49.148;8.582;2022-12-08T09:58:12;99879.75;;;2.19;100.00
24558;BME280;12726;49.148;8.582;2022-12-08T10:01:01;99868.59;;;2.23;100.00
24558;BME280;12726;49.148;8.582;2022-12-08T10:03:47;99865.28;;;2.21;100.00
24558;BME280;12726;49.148;8.582;2022-12-08T10:06:38;99861.13;;;2.27;100.00
24558;BME280;12726;49.148;8.582;2022-12-08T10:09:31;99861.06;;;2.35;100.00
24558;BME280;12726;49.148;8.582;2022-12-08T10:12:24;99862.16;;;2.49;100.00
24558;BME280;12726;49.148;8.582;2022-12-08T10:15:25;99853.03;;;2.51;100.00
24558;BME280;12726;49.148;8.582;2022-12-08T10:18:16;99852.13;;;2.67;100.00
24558;BME280;12726;49.148;8.582;2022-12-08T10:21:12;99852.59;;;2.70;99.21
24558;BME280;12726;49.148;8.582;2022-12-08T10:24:10;99855.41;;;2.77;99.41
24558;BME280;12726;49.148;8.582;2022-12-08T10:26:59;99853.69;;;2.84;99.78
24558;BME280;12726;49.148;8.582;2022-12-08T10:29:45;99854.38;;;3.01;97.53
24558;BME280;12726;49.148;8.582;2022-12-08T10:32:34;99847.53;;;3.06;97.88
24558;BME280;12726;49.148;8.582;2022-12-08T10:35:20;99838.72;;;3.06;96.40
24558;BME280;12726;49.148;8.582;2022-12-08T10:38:16;99843.03;;;3.07;96.59
24558;BME280;12726;49.148;8.582;2022-12-08T10:41:08;99838.22;;;3.10;96.79
24558;BME280;12726;49.148;8.582;2022-12-08T10:44:00;99833.00;;;3.17;96.20
24558;BME280;12726;49.148;8.582;2022-12-08T10:46:45;99833.81;;;3.18;95.70
24558;BME280;12726;49.148;8.582;2022-12-08T10:49:31;99828.97;;;3.21;95.52
24558;BME280;12726;49.148;8.582;2022-12-08T10:52:21;99827.81;;;3.38;94.87
24558;BME280;12726;49.148;8.582;2022-12-08T10:55:13;99824.09;;;3.47;94.05
24558;BME280;12726;49.148;8.582;2022-12-08T10:58:00;99816.00;;;3.55;93.21
24558;BME280;12726;49.148;8.582;2022-12-08T11:00:46;99823.91;;;3.64;92.15
24558;BME280;12726;49.148;8.582;2022-12-08T11:03:36;99814.28;;;3.77;92.62
24558;BME280;12726;49.148;8.582;2022-12-08T11:06:29;99810.34;;;4.03;90.66
24558;BME280;12726;49.148;8.582;2022-12-08T11:09:36;99807.75;;;4.09;88.76
24558;BME280;12726;49.148;8.582;2022-12-08T11:12:27;99800.94;;;4.21;88.32
24558;BME280;12726;49.148;8.582;2022-12-08T11:15:18;99784.19;;;4.27;89.34
24558;BME280;12726;49.148;8.582;2022-12-08T11:18:22;99789.03;;;4.53;89.09
24558;BME280;12726;49.148;8.582;2022-12-08T11:21:12;99787.38;;;4.73;86.17
24558;BME280;12726;49.148;8.582;2022-12-08T11:24:09;99789.41;;;4.71;85.89
24558;BME280;12726;49.148;8.582;2022-12-08T11:27:04;99790.16;;;4.65;86.80
24558;BME280;12726;49.148;8.582;2022-12-08T11:29:52;99788.69;;;4.63;84.40
24558;BME280;12726;49.148;8.582;2022-12-08T11:32:41;99786.41;;;4.39;84.44
24558;BME280;12726;49.148;8.582;2022-12-08T11:35:29;99780.28;;;4.23;85.89
24558;BME280;12726;49.148;8.582;2022-12-08T11:38:19;99786.53;;;4.16;85.79
24558;BME280;12726;49.148;8.582;2022-12-08T11:41:09;99766.03;;;4.16;86.95
24558;BME280;12726;49.148;8.582;2022-12-08T11:43:58;99778.00;;;4.06;86.98
24558;BME280;12726;49.148;8.582;2022-12-08T11:46:49;99766.22;;;4.15;86.60
24558;BME280;12726;49.148;8.582;2022-12-08T11:49:40;99769.81;;;4.07;85.46
24558;BME280;12726;49.148;8.582;2022-12-08T11:52:29;99767.41;;;4.12;85.38
24558;BME280;12726;49.148;8.582;2022-12-08T11:55:26;99757.31;;;4.22;85.47
24558;BME280;12726;49.148;8.582;2022-12-08T11:58:17;99764.78;;;4.33;84.82
24558;BME280;12726;49.148;8.582;2022-12-08T12:01:04;99764.28;;;4.23;83.44
24558;BME280;12726;49.148;8.582;2022-12-08T12:03:55;99758.97;;;4.23;84.78
24558;BME280;12726;49.148;8.582;2022-12-08T12:07:19;99750.78;;;4.25;84.64
24558;BME280;12726;49.148;8.582;2022-12-08T12:10:19;99752.03;;;4.86;82.45
24558;BME280;12726;49.148;8.582;2022-12-08T12:13:16;99740.09;;;7.33;74.62
24558;BME280;12726;49.148;8.582;2022-12-08T12:16:19;99735.47;;;9.87;60.09
24558;BME280;12726;49.148;8.582;2022-12-08T12:19:11;99731.56;;;11.55;54.87
24558;BME280;12726;49.148;8.582;2022-12-08T12:22:05;99730.28;;;11.46;53.05
24558;BME280;12726;49.148;8.582;2022-12-08T12:24:53;99724.50;;;11.89;51.98
24558;BME280;12726;49.148;8.582;2022-12-08T12:27:39;99724.53;;;11.31;52.61
24558;BME280;12726;49.148;8.582;2022-12-08T12:30:26;99720.84;;;9.39;56.41
24558;BME280;12726;49.148;8.582;2022-12-08T12:33:13;99728.44;;;7.85;61.84
24558;BME280;12726;49.148;8.582;2022-12-08T12:36:03;99730.94;;;6.29;67.47
24558;BME280;12726;49.148;8.582;2022-12-08T12:38:51;99734.81;;;5.79;71.93
24558;BME280;12726;49.148;8.582;2022-12-08T12:41:51;99730.09;;;5.40;74.96
24558;BME280;12726;49.148;8.582;2022-12-08T12:44:41;99726.31;;;5.34;76.07
24558;BME280;12726;49.148;8.582;2022-12-08T12:47:43;99730.56;;;4.94;76.68
24558;BME280;12726;49.148;8.582;2022-12-08T12:50:43;99719.84;;;4.66;77.79
24558;BME280;12726;49.148;8.582;2022-12-08T12:53:49;99723.75;;;4.49;80.40
24558;BME280;12726;49.148;8.582;2022-12-08T12:56:53;99724.41;;;4.51;80.57
24558;BME280;12726;49.148;8.582;2022-12-08T12:59:41;99718.38;;;4.43;80.54
24558;BME280;12726;49.148;8.582;2022-12-08T13:02:28;99712.09;;;4.50;81.86
24558;BME280;12726;49.148;8.582;2022-12-08T13:05:17;99714.75;;;4.50;81.50
24558;BME280;12726;49.148;8.582;2022-12-08T13:08:05;99719.25;;;4.50;81.02
24558;BME280;12726;49.148;8.582;2022-12-08T13:11:02;99718.91;;;4.53;81.08
24558;BME280;12726;49.148;8.582;2022-12-08T13:13:56;99715.59;;;4.51;81.40
24558;BME280;12726;49.148;8.582;2022-12-08T13:16:42;99704.03;;;4.44;81.22
24558;BME280;12726;49.148;8.582;2022-12-08T13:19:30;99702.06;;;4.52;82.40
24558;BME280;12726;49.148;8.582;2022-12-08T13:22:49;99702.31;;;4.57;81.17
24558;BME280;12726;49.148;8.582;2022-12-08T13:26:08;99697.28;;;4.69;81.42
24558;BME280;12726;49.148;8.582;2022-12-08T13:29:13;99698.13;;;4.69;81.08
24558;BME280;12726;49.148;8.582;2022-12-08T13:31:59;99702.50;;;4.56;80.70
24558;BME280;12726;49.148;8.582;2022-12-08T13:34:48;99702.06;;;4.52;81.43
24558;BME280;12726;49.148;8.582;2022-12-08T13:37:43;99704.63;;;4.60;81.79
24558;BME280;12726;49.148;8.582;2022-12-08T13:40:31;99696.63;;;4.60;81.71
24558;BME280;12726;49.148;8.582;2022-12-08T13:43:24;99689.13;;;4.49;81.88
24558;BME280;12726;49.148;8.582;2022-12-08T13:46:25;99699.34;;;4.46;82.06
24558;BME280;12726;49.148;8.582;2022-12-08T13:49:16;99700.53;;;4.43;83.39
24558;BME280;12726;49.148;8.582;2022-12-08T13:52:02;99701.75;;;4.41;83.46
24558;BME280;12726;49.148;8.582;2022-12-08T13:54:49;99697.94;;;4.28;83.68
24558;BME280;12726;49.148;8.582;2022-12-08T13:57:35;99693.81;;;4.26;85.08
24558;BME280;12726;49.148;8.582;2022-12-08T14:00:22;99687.47;;;4.27;84.97
24558;BME280;12726;49.148;8.582;2022-12-08T14:03:11;99685.00;;;4.25;84.55
24558;BME280;12726;49.148;8.582;2022-12-08T14:05:57;99691.88;;;4.20;84.10
24558;BME280;12726;49.148;8.582;2022-12-08T14:08:45;99690.44;;;4.17;84.68
24558;BME280;12726;49.148;8.582;2022-12-08T14:11:35;99699.56;;;4.08;84.79
24558;BME280;12726;49.148;8.582;2022-12-08T14:14:26;99690.41;;;3.96;84.80
24558;BME280;12726;49.148;8.582;2022-12-08T14:17:14;99695.91;;;3.94;84.78
24558;BME280;12726;49.148;8.582;2022-12-08T14:20:18;99688.13;;;3.93;85.35
24558;BME280;12726;49.148;8.582;2022-12-08T14:23:05;99691.78;;;3.92;85.32
24558;BME280;12726;49.148;8.582;2022-12-08T14:25:50;99682.53;;;3.88;85.47
24558;BME280;12726;49.148;8.582;2022-12-08T14:28:38;99688.94;;;3.93;85.03
24558;BME280;12726;49.148;8.582;2022-12-08T14:31:24;99694.19;;;3.87;84.81
24558;BME280;12726;49.148;8.582;2022-12-08T14:34:17;99685.03;;;3.75;85.32
24558;BME280;12726;49.148;8.582;2022-12-08T14:37:04;99690.19;;;3.62;85.84
24558;BME280;12726;49.148;8.582;2022-12-08T14:39:50;99688.56;;;3.61;86.58
24558;BME280;12726;49.148;8.582;2022-12-08T14:42:42;99685.59;;;3.55;85.99
24558;BME280;12726;49.148;8.582;2022-12-08T14:45:27;99694.78;;;3.53;86.29
24558;BME280;12726;49.148;8.582;2022-12-08T14:48:23;99692.78;;;3.55;86.48
24558;BME280;12726;49.148;8.582;2022-12-08T14:51:24;99696.81;;;3.51;86.99
24558;BME280;12726;49.148;8.582;2022-12-08T14:54:13;99698.09;;;3.55;87.11
24558;BME280;12726;49.148;8.582;2022-12-08T14:57:00;99691.56;;;3.43;87.28